createdAt,value
2022-11-25T00:02:32.347Z,100996.49
2022-11-25T00:07:56.835Z,100992.85
2022-11-25T00:13:20.091Z,100993.80
2022-11-25T00:18:44.701Z,100994.72
2022-11-25T00:24:13.262Z,100993.94
2022-11-25T00:29:35.433Z,100996.58
2022-11-25T00:34:57.631Z,101014.16
2022-11-25T00:40:20.677Z,101015.97
2022-11-25T00:45:42.917Z,101019.53
2022-11-25T00:51:06.026Z,101010.75
2022-11-25T00:56:30.595Z,101018.76
2022-11-25T01:01:53.952Z,101024.04
2022-11-25T01:07:16.358Z,101022.35
2022-11-25T01:12:39.361Z,101016.20
2022-11-25T01:18:04.062Z,101019.67
2022-11-25T01:23:26.275Z,101025.81
2022-11-25T01:28:49.734Z,101028.45
2022-11-25T01:34:23.266Z,101028.45
2022-11-25T01:39:45.556Z,101031.91
2022-11-25T01:45:31.782Z,101030.19
2022-11-25T01:50:56.084Z,101031.13
2022-11-25T01:56:20.267Z,101037.23
2022-11-25T02:01:43.096Z,101038.05
2022-11-25T02:07:10.314Z,101031.95
2022-11-25T02:12:34.987Z,101027.59
2022-11-25T02:17:58.139Z,101035.59
2022-11-25T02:23:52.116Z,101031.18
2022-11-25T02:29:14.565Z,101038.19
2022-11-25T02:34:36.919Z,101033.69
2022-11-25T02:40:00.312Z,101030.05
2022-11-25T02:45:24.811Z,101034.47
2022-11-25T02:50:47.056Z,101030.14
2022-11-25T02:56:10.318Z,101029.19
2022-11-25T03:01:33.184Z,101031.81
2022-11-25T03:06:55.648Z,101041.41
2022-11-25T03:12:20.772Z,101032.63
2022-11-25T03:17:43.730Z,101043.97
2022-11-25T03:23:06.049Z,101044.02
2022-11-25T03:28:28.332Z,101048.52
2022-11-25T03:33:50.528Z,101046.84
2022-11-25T03:39:12.795Z,101051.38
2022-11-25T03:44:36.016Z,101052.98
2022-11-25T03:49:58.685Z,101059.12
2022-11-25T03:55:21.172Z,101054.72
2022-11-25T04:00:44.771Z,101056.53
2022-11-25T04:06:07.701Z,101053.03
2022-11-25T04:17:09.022Z,101061.44
2022-11-25T04:22:31.398Z,101066.04
2022-11-25T04:27:53.690Z,101077.42
2022-11-25T04:33:16.131Z,101083.56
2022-11-25T04:38:39.940Z,101088.84
2022-11-25T04:44:05.528Z,101096.89
2022-11-25T04:49:28.987Z,101086.39
2022-11-25T04:54:51.180Z,101089.02
2022-11-25T05:00:13.913Z,101088.03
2022-11-25T05:05:36.250Z,101094.08
2022-11-25T05:10:58.562Z,101101.95
2022-11-25T05:16:21.090Z,101093.12
2022-11-25T05:21:43.335Z,101101.95
2022-11-25T05:27:06.025Z,101117.89
2022-11-25T05:32:29.374Z,101110.09
2022-11-25T05:37:51.626Z,101121.56
2022-11-25T05:43:13.833Z,101111.83
2022-11-25T05:48:36.095Z,101113.56
2022-11-25T05:53:58.485Z,101117.11
2022-11-25T05:59:22.512Z,101132.98
2022-11-25T06:04:44.745Z,101123.34
2022-11-25T06:10:07.125Z,101127.84
2022-11-25T06:15:30.296Z,101124.47
2022-11-25T06:20:54.865Z,101136.02
2022-11-25T06:26:29.597Z,101139.56
2022-11-25T06:31:51.787Z,101140.52
2022-11-25T06:37:14.487Z,101144.03
2022-11-25T06:42:36.697Z,101141.39
2022-11-25T06:47:59.514Z,101143.16
2022-11-25T06:53:24.224Z,101144.89
2022-11-25T06:58:46.458Z,101152.80
2022-11-25T07:04:13.896Z,101149.13
2022-11-25T07:09:36.546Z,101155.19
2022-11-25T07:14:58.868Z,101167.56
2022-11-25T07:20:22.092Z,101161.42
2022-11-25T07:25:45.759Z,101159.65
2022-11-25T07:31:31.560Z,101169.30
2022-11-25T07:36:37.372Z,101175.44
2022-11-25T07:42:01.492Z,101187.81
2022-11-25T07:47:25.304Z,101190.33
2022-11-25T07:52:49.291Z,101193.91
2022-11-25T07:58:11.533Z,101201.71
2022-11-25T08:03:34.215Z,101204.22
2022-11-25T08:08:57.924Z,101212.93
2022-11-25T08:14:21.365Z,101211.11
2022-11-25T08:19:43.765Z,101214.61
2022-11-25T08:25:06.057Z,101212.80
2022-11-25T08:30:28.542Z,101214.49
2022-11-25T08:35:50.762Z,101216.27
2022-11-25T08:41:16.076Z,101222.16
2022-11-25T08:46:42.054Z,101229.08
2022-11-25T08:52:05.035Z,101229.03
2022-11-25T08:57:27.299Z,101238.57
2022-11-25T09:02:50.267Z,101247.57
2022-11-25T09:08:13.160Z,101251.12
2022-11-25T09:13:35.966Z,101249.39
2022-11-25T09:18:59.933Z,101249.17
2022-11-25T09:24:22.627Z,101239.48
2022-11-25T09:29:44.807Z,101247.13
2022-11-25T09:35:07.195Z,101249.73
2022-11-25T09:40:51.229Z,101253.06
2022-11-25T09:46:49.076Z,101250.73
2022-11-25T09:52:35.094Z,101255.11
2022-11-25T09:58:35.628Z,101254.28
2022-11-25T10:04:13.485Z,101253.55
2022-11-25T10:09:39.671Z,101245.19
2022-11-25T10:15:14.372Z,101249.61
2022-11-25T10:20:52.571Z,101254.52
2022-11-25T10:26:20.078Z,101254.97
2022-11-25T10:31:49.561Z,101257.83
2022-11-25T10:37:16.645Z,101256.83
2022-11-25T10:42:43.356Z,101252.33
2022-11-25T10:48:16.840Z,101264.59
2022-11-25T10:53:43.569Z,101256.56
2022-11-25T10:59:07.292Z,101263.55
2022-11-25T11:04:30.969Z,101273.11
2022-11-25T11:09:54.773Z,101278.53
2022-11-25T11:15:37.216Z,101278.58
2022-11-25T11:21:05.507Z,101272.30
2022-11-25T11:26:43.178Z,101280.13
2022-11-25T11:32:19.287Z,101276.49
2022-11-25T11:38:07.509Z,101284.73
2022-11-25T11:44:05.333Z,101287.20
2022-11-25T11:49:51.613Z,101284.46
2022-11-25T11:55:19.486Z,101283.52
2022-11-25T12:06:19.769Z,101283.01
2022-11-25T12:11:49.759Z,101288.80
2022-11-25T12:17:09.256Z,101296.68
2022-11-25T12:22:42.349Z,101293.61
2022-11-25T12:28:43.012Z,101296.47
2022-11-25T12:34:34.017Z,101301.63
2022-11-25T12:40:15.652Z,101298.23
2022-11-25T12:45:43.018Z,101296.34
2022-11-25T12:51:15.342Z,101294.89
2022-11-25T12:56:49.053Z,101297.32
2022-11-25T13:02:40.207Z,101284.05
2022-11-25T13:08:39.182Z,101292.80
2022-11-25T13:14:27.949Z,101294.81
2022-11-25T13:19:50.941Z,101300.31
2022-11-25T13:25:16.877Z,101302.19
2022-11-25T13:30:54.183Z,101304.83
2022-11-25T13:36:25.465Z,101304.78
2022-11-25T13:42:20.989Z,101315.48
2022-11-25T13:47:47.877Z,101315.61
2022-11-25T13:53:33.127Z,101312.27
2022-11-25T13:59:17.594Z,101321.89
2022-11-25T14:05:17.755Z,101324.66
2022-11-25T14:11:19.252Z,101331.02
2022-11-25T14:17:10.023Z,101334.77
2022-11-25T14:22:54.072Z,101338.52
2022-11-25T14:34:23.569Z,101346.88
2022-11-25T14:40:13.602Z,101356.81
2022-11-25T14:45:49.057Z,101355.98
2022-11-25T14:51:19.573Z,101359.80
2022-11-25T14:56:44.490Z,101369.45
2022-11-25T15:02:14.368Z,101371.27
2022-11-25T15:07:38.323Z,101369.56
2022-11-25T15:13:00.964Z,101374.95
2022-11-25T15:18:27.618Z,101380.27
2022-11-25T15:23:52.475Z,101389.97
2022-11-25T15:29:25.667Z,101392.67
2022-11-25T15:34:49.091Z,101393.55
2022-11-25T15:40:47.815Z,101387.47
2022-11-25T15:46:15.742Z,101391.95
2022-11-25T15:52:05.155Z,101393.66
2022-11-25T15:57:50.604Z,101394.48
2022-11-25T16:03:26.711Z,101388.34
2022-11-25T16:09:04.642Z,101390.22
2022-11-25T16:14:41.928Z,101396.50
2022-11-25T16:20:05.708Z,101399.31
2022-11-25T16:25:29.774Z,101401.22
2022-11-25T16:30:57.737Z,101401.35
2022-11-25T16:36:17.361Z,101411.97
2022-11-25T16:41:41.195Z,101423.52
2022-11-25T16:47:04.222Z,101415.63
2022-11-25T16:52:26.989Z,101420.88
2022-11-25T16:57:51.431Z,101426.92
2022-11-25T17:03:15.394Z,101424.22
2022-11-25T17:08:38.204Z,101433.97
2022-11-25T17:14:05.097Z,101432.20
2022-11-25T17:19:29.456Z,101426.98
2022-11-25T17:24:52.314Z,101433.20
2022-11-25T17:30:21.143Z,101439.41
2022-11-25T17:35:43.621Z,101430.63
2022-11-25T17:41:06.553Z,101438.16
2022-11-25T17:46:33.520Z,101441.76
2022-11-25T17:51:56.393Z,101435.83
2022-11-25T17:57:23.625Z,101439.41
2022-11-25T18:02:46.072Z,101453.52
2022-11-25T18:08:09.331Z,101457.98
2022-11-25T18:13:31.557Z,101455.31
2022-11-25T18:18:53.830Z,101468.45
2022-11-25T18:24:16.116Z,101464.03
2022-11-25T18:29:45.476Z,101471.05
2022-11-25T18:35:07.663Z,101470.18
2022-11-25T18:40:34.616Z,101473.78
2022-11-25T18:45:59.394Z,101477.25
2022-11-25T18:51:23.335Z,101472.84
2022-11-25T18:56:46.394Z,101480.73
2022-11-25T19:02:08.887Z,101475.45
2022-11-25T19:07:31.635Z,101480.73
2022-11-25T19:12:56.524Z,101484.23
2022-11-25T19:18:23.454Z,101479.89
2022-11-25T19:23:46.079Z,101481.74
2022-11-25T19:29:16.209Z,101487.05
2022-11-25T19:34:48.981Z,101499.36
2022-11-25T19:40:25.464Z,101496.78
2022-11-25T19:45:48.731Z,101507.39
2022-11-25T19:51:11.501Z,101497.63
2022-11-25T19:56:37.630Z,101517.01
2022-11-25T20:02:02.072Z,101520.56
2022-11-25T20:07:27.395Z,101520.55
2022-11-25T20:12:50.468Z,101529.38
2022-11-25T20:18:18.126Z,101538.29
2022-11-25T20:23:50.429Z,101538.28
2022-11-25T20:29:28.844Z,101539.20
2022-11-25T20:34:47.972Z,101543.71
2022-11-25T20:40:16.737Z,101541.24
2022-11-25T20:45:40.671Z,101549.29
2022-11-25T20:51:07.143Z,101554.72
2022-11-25T20:56:32.644Z,101561.00
2022-11-25T21:01:55.620Z,101567.13
2022-11-25T21:07:22.647Z,101577.72
2022-11-25T21:12:44.965Z,101575.17
2022-11-25T21:18:07.522Z,101583.15
2022-11-25T21:23:34.343Z,101579.76
2022-11-25T21:28:59.291Z,101583.27
2022-11-25T21:34:24.346Z,101583.39
2022-11-25T21:39:48.417Z,101587.01
2022-11-25T21:45:11.593Z,101584.31
2022-11-25T21:50:35.638Z,101589.66
2022-11-25T21:55:58.897Z,101589.70
2022-11-25T22:01:22.701Z,101592.36
2022-11-25T22:06:46.773Z,101605.52
2022-11-25T22:12:09.320Z,101606.48
2022-11-25T22:17:33.349Z,101618.87
2022-11-25T22:22:55.751Z,101616.16
2022-11-25T22:28:19.862Z,101628.44
2022-11-25T22:33:45.086Z,101646.00
2022-11-25T22:39:21.054Z,101647.73
2022-11-25T22:44:52.527Z,101657.40
2022-11-25T22:50:20.802Z,101648.69
2022-11-25T22:55:45.238Z,101650.51
2022-11-25T23:01:09.079Z,101658.31
2022-11-25T23:06:32.692Z,101660.13
2022-11-25T23:11:55.059Z,101651.42
2022-11-25T23:17:28.674Z,101661.98
2022-11-25T23:22:50.888Z,101665.41
2022-11-25T23:28:13.092Z,101657.52
2022-11-25T23:33:42.624Z,101664.55
2022-11-25T23:39:08.781Z,101669.80
2022-11-25T23:44:39.856Z,101665.45
2022-11-25T23:50:05.002Z,101675.09
2022-11-25T23:55:31.665Z,101673.41
